Time;durP1;ratioP1;P1;durP2;ratioP2;P2;SDS_P1;SDS_P2;PMS_P1;PMS_P2;Temp;Humidity;BMP_temperature;BMP_pressure;BME280_temperature;BME280_humidity;BME280_pressure;Samples;Min_cycle;Max_cycle;Signal;HPM_P1;HPM_P2
2021/08/11 00:00:58;;;;;;;15.07;13.43;;;16.00;99.90;;;;;;5032409;28;20187;-67
2021/08/11 00:03:23;;;;;;;20.97;12.50;;;16.00;99.90;;;;;;5032559;28;20179;-66
2021/08/11 00:05:49;;;;;;;17.50;13.10;;;15.90;99.90;;;;;;5032374;28;20559;-66
2021/08/11 00:08:14;;;;;;;18.07;13.80;;;15.90;99.90;;;;;;5032331;28;20254;-67
2021/08/11 00:10:41;;;;;;;20.47;14.80;;;15.90;99.90;;;;;;5030968;28;20172;-67
2021/08/11 00:13:06;;;;;;;20.87;14.27;;;15.90;99.90;;;;;;5032269;28;20674;-66
2021/08/11 00:15:32;;;;;;;22.47;14.03;;;15.80;99.90;;;;;;5032175;28;20207;-67
2021/08/11 00:17:57;;;;;;;22.20;18.70;;;15.80;99.90;;;;;;5032250;28;20687;-67
2021/08/11 00:20:24;;;;;;;23.17;18.53;;;15.70;99.90;;;;;;5032085;28;20668;-67
2021/08/11 00:22:51;;;;;;;19.87;17.90;;;15.70;99.90;;;;;;5032271;28;20172;-67
2021/08/11 00:25:16;;;;;;;20.60;18.50;;;15.70;99.90;;;;;;5012346;28;20259;-66
2021/08/11 00:27:42;;;;;;;22.97;20.77;;;15.70;99.90;;;;;;5012476;28;20176;-67
2021/08/11 00:30:08;;;;;;;20.93;18.03;;;15.70;99.90;;;;;;5030363;28;20214;-66
2021/08/11 00:32:34;;;;;;;23.03;18.10;;;15.60;99.90;;;;;;5032316;28;20293;-67
2021/08/11 00:35:00;;;;;;;22.20;20.20;;;15.60;99.90;;;;;;5031801;28;20215;-67
2021/08/11 00:37:26;;;;;;;21.77;19.47;;;15.60;99.90;;;;;;5032052;28;20178;-66
2021/08/11 00:39:51;;;;;;;26.63;24.37;;;15.50;99.90;;;;;;5031678;28;20179;-68
2021/08/11 00:42:17;;;;;;;35.77;25.73;;;15.50;99.90;;;;;;5031822;28;20163;-67
2021/08/11 00:44:42;;;;;;;27.33;24.53;;;15.60;99.90;;;;;;5030748;28;20191;-67
2021/08/11 00:47:08;;;;;;;27.53;24.87;;;15.60;99.90;;;;;;5031373;28;20234;-67
2021/08/11 00:49:34;;;;;;;25.87;23.17;;;15.60;99.90;;;;;;5031353;28;20188;-67
2021/08/11 00:51:59;;;;;;;17.27;13.73;;;15.50;99.90;;;;;;5031757;28;20179;-66
2021/08/11 00:54:27;;;;;;;19.77;12.93;;;15.50;99.90;;;;;;5031398;28;20200;-66
2021/08/11 00:56:54;;;;;;;18.60;14.00;;;15.50;99.90;;;;;;5031515;28;20203;-68
2021/08/11 00:59:23;;;;;;;21.67;16.27;;;15.50;99.90;;;;;;5031277;28;20171;-67
2021/08/11 01:01:50;;;;;;;18.57;16.03;;;15.50;99.90;;;;;;5031593;28;20179;-67
2021/08/11 01:04:17;;;;;;;15.53;12.77;;;15.40;99.90;;;;;;5031438;28;20171;-67
2021/08/11 01:06:43;;;;;;;16.30;14.53;;;15.40;99.90;;;;;;5031754;28;20274;-67
2021/08/11 01:09:13;;;;;;;21.07;15.30;;;15.40;99.90;;;;;;5031315;28;20187;-67
2021/08/11 01:11:42;;;;;;;18.67;15.30;;;15.40;99.90;;;;;;5031288;28;20183;-67
2021/08/11 01:14:08;;;;;;;20.63;16.03;;;15.50;99.90;;;;;;5031028;28;20225;-67
2021/08/11 01:16:33;;;;;;;15.03;13.47;;;15.50;99.90;;;;;;5031588;28;20196;-66
2021/08/11 01:18:59;;;;;;;17.93;16.00;;;15.40;99.90;;;;;;5031411;28;20672;-67
2021/08/11 01:21:29;;;;;;;17.13;13.13;;;15.50;99.90;;;;;;5030876;28;20167;-67
2021/08/11 01:24:04;;;;;;;15.50;13.80;;;15.50;99.90;;;;;;5030871;28;20243;-67
2021/08/11 01:27:28;;;;;;;17.33;15.57;;;15.50;99.90;;;;;;5031763;28;20278;-66
2021/08/11 01:30:00;;;;;;;17.27;14.73;;;15.50;99.90;;;;;;4989292;28;20610;-67
2021/08/11 01:32:46;;;;;;;18.07;13.97;;;15.60;99.90;;;;;;5024217;28;20270;-67
2021/08/11 01:35:15;;;;;;;19.47;15.37;;;15.60;99.90;;;;;;5030979;28;20211;-67
2021/08/11 01:37:41;;;;;;;17.27;15.53;;;15.60;99.90;;;;;;5031477;28;20168;-67
2021/08/11 01:40:10;;;;;;;17.07;15.20;;;15.60;99.90;;;;;;5030776;28;20173;-67
2021/08/11 01:42:39;;;;;;;15.77;12.80;;;15.60;99.90;;;;;;5031400;28;20625;-67
2021/08/11 01:45:13;;;;;;;19.93;14.57;;;15.60;99.90;;;;;;5031212;28;20205;-67
2021/08/11 01:47:41;;;;;;;19.47;15.63;;;15.60;99.90;;;;;;5029782;28;20246;-67
2021/08/11 01:50:09;;;;;;;21.13;16.33;;;15.50;99.90;;;;;;5030972;28;20183;-67
2021/08/11 01:52:43;;;;;;;17.33;15.60;;;15.50;99.90;;;;;;5031079;28;20171;-67
2021/08/11 01:55:11;;;;;;;20.00;14.33;;;15.50;99.90;;;;;;5031092;28;20579;-67
2021/08/11 01:57:44;;;;;;;17.40;14.77;;;15.60;99.90;;;;;;5031687;28;20606;-67
2021/08/11 02:00:11;;;;;;;19.83;13.37;;;15.50;99.90;;;;;;5034722;28;20653;-67
2021/08/11 02:02:37;;;;;;;15.87;12.03;;;15.50;99.90;;;;;;5033527;28;20262;-67
2021/08/11 02:05:05;;;;;;;15.83;12.87;;;15.60;99.90;;;;;;5035027;28;20199;-66
2021/08/11 02:07:32;;;;;;;19.27;12.93;;;15.50;99.90;;;;;;5034812;28;20171;-66
2021/08/11 02:09:58;;;;;;;17.87;12.83;;;15.40;99.90;;;;;;5034482;28;20227;-67
2021/08/11 02:12:24;;;;;;;23.40;14.67;;;15.40;99.90;;;;;;5034902;28;20218;-67
2021/08/11 02:14:50;;;;;;;24.63;15.13;;;15.40;99.90;;;;;;5034879;28;20709;-66
2021/08/11 02:17:16;;;;;;;18.23;13.90;;;15.40;99.90;;;;;;5034716;28;20539;-66
2021/08/11 02:19:42;;;;;;;22.30;20.10;;;15.40;99.90;;;;;;5034199;28;20182;-67
2021/08/11 02:22:07;;;;;;;26.73;24.17;;;15.40;99.90;;;;;;5034857;28;20167;-67
2021/08/11 02:24:33;;;;;;;22.73;20.30;;;15.40;99.90;;;;;;5034347;28;20180;-67
2021/08/11 02:27:03;;;;;;;28.90;26.57;;;15.40;99.90;;;;;;5034659;28;20198;-67
2021/08/11 02:29:44;;;;;;;26.20;23.70;;;15.30;99.90;;;;;;5034057;28;20238;-67
2021/08/11 02:32:19;;;;;;;28.80;26.27;;;15.30;99.90;;;;;;5034393;28;20175;-67
2021/08/11 02:34:58;;;;;;;20.77;15.97;;;15.20;99.90;;;;;;5034158;28;20655;-67
2021/08/11 02:37:44;;;;;;;21.40;15.37;;;15.30;99.90;;;;;;5034355;28;20164;-67
2021/08/11 02:40:30;;;;;;;21.57;19.07;;;15.30;99.90;;;;;;5033612;28;20202;-67
2021/08/11 02:43:22;;;;;;;18.70;12.93;;;15.20;99.90;;;;;;5033749;28;20198;-67
2021/08/11 02:45:53;;;;;;;19.07;12.30;;;15.10;99.90;;;;;;5034468;28;20192;-66
2021/08/11 02:48:20;;;;;;;20.27;13.53;;;15.00;99.90;;;;;;5032847;28;20186;-67
2021/08/11 02:50:49;;;;;;;19.73;15.30;;;14.90;99.90;;;;;;5034179;28;20521;-67
2021/08/11 02:53:18;;;;;;;16.60;14.03;;;14.80;99.90;;;;;;5034220;28;20183;-67
2021/08/11 02:55:45;;;;;;;19.60;14.13;;;14.80;99.90;;;;;;5034050;28;20239;-67
2021/08/11 02:58:11;;;;;;;17.10;14.17;;;14.80;99.90;;;;;;5034061;28;20226;-66
2021/08/11 03:00:37;;;;;;;21.43;13.50;;;14.80;99.90;;;;;;5033658;28;20176;-66
2021/08/11 03:03:04;;;;;;;15.90;13.27;;;14.70;99.90;;;;;;5034531;28;20218;-66
2021/08/11 03:05:30;;;;;;;21.80;14.73;;;14.70;99.90;;;;;;5033880;28;20199;-67
2021/08/11 03:07:57;;;;;;;22.90;15.23;;;14.60;99.90;;;;;;5033554;28;20171;-67
2021/08/11 03:10:22;;;;;;;26.23;23.57;;;14.70;99.90;;;;;;5031871;28;20180;-66
2021/08/11 03:12:48;;;;;;;26.10;22.23;;;14.70;99.90;;;;;;5014067;28;20172;-67
2021/08/11 03:15:16;;;;;;;20.93;17.00;;;14.60;99.90;;;;;;5013772;28;20246;-65
2021/08/11 03:17:44;;;;;;;29.60;21.13;;;14.50;99.90;;;;;;5033323;28;20186;-67
2021/08/11 03:20:10;;;;;;;20.53;14.77;;;14.50;99.90;;;;;;5033564;28;20196;-67
2021/08/11 03:22:36;;;;;;;22.57;14.13;;;14.50;99.90;;;;;;5033386;28;20221;-66
2021/08/11 03:25:01;;;;;;;21.30;14.97;;;14.50;99.90;;;;;;5032287;28;20230;-67
2021/08/11 03:27:27;;;;;;;24.10;21.30;;;14.50;99.90;;;;;;5033259;28;20555;-67
2021/08/11 03:29:53;;;;;;;22.30;14.53;;;14.60;99.90;;;;;;5033001;28;20198;-66
2021/08/11 03:32:18;;;;;;;18.67;13.87;;;14.60;99.90;;;;;;5032756;28;20183;-66
2021/08/11 03:34:44;;;;;;;21.30;16.00;;;14.50;99.90;;;;;;5033003;28;20206;-66
2021/08/11 03:37:13;;;;;;;21.57;16.47;;;14.50;99.90;;;;;;5033132;28;20649;-67
2021/08/11 03:39:39;;;;;;;21.10;16.00;;;14.50;99.90;;;;;;5032690;28;20176;-67
2021/08/11 03:42:05;;;;;;;20.17;16.87;;;14.40;99.90;;;;;;5033076;28;20660;-66
2021/08/11 03:44:31;;;;;;;19.87;17.17;;;14.40;99.90;;;;;;5032607;28;20179;-65
2021/08/11 03:46:56;;;;;;;24.10;17.43;;;14.50;99.90;;;;;;5033252;28;20269;-66
2021/08/11 03:49:22;;;;;;;16.53;13.27;;;14.40;99.90;;;;;;5032488;28;20199;-69
2021/08/11 03:51:47;;;;;;;16.60;12.73;;;14.30;99.90;;;;;;5032755;28;20259;-69
2021/08/11 03:54:13;;;;;;;23.83;13.53;;;14.30;99.90;;;;;;5032574;28;20175;-69
2021/08/11 03:56:39;;;;;;;27.00;13.20;;;14.20;99.90;;;;;;5057120;22;20314;-68
2021/08/11 03:59:05;;;;;;;22.60;12.90;;;14.30;99.90;;;;;;5032609;28;20182;-67
2021/08/11 04:01:31;;;;;;;18.50;12.43;;;14.30;99.90;;;;;;5032252;28;20170;-68
2021/08/11 04:03:56;;;;;;;17.97;13.20;;;14.30;99.90;;;;;;5032291;28;20167;-68
2021/08/11 04:06:22;;;;;;;18.13;12.83;;;14.20;99.90;;;;;;5032280;28;20223;-68
2021/08/11 04:08:48;;;;;;;19.47;13.17;;;14.20;99.90;;;;;;5032634;28;20195;-67
2021/08/11 04:11:13;;;;;;;24.30;14.30;;;14.20;99.90;;;;;;5032186;28;20237;-68
2021/08/11 04:13:39;;;;;;;18.83;14.23;;;14.20;99.90;;;;;;5032346;28;20193;-68
2021/08/11 04:16:05;;;;;;;20.60;14.03;;;14.30;99.90;;;;;;5031121;28;20211;-67
2021/08/11 04:18:30;;;;;;;21.90;13.83;;;14.20;99.90;;;;;;5031178;28;20500;-68
2021/08/11 04:20:56;;;;;;;15.77;12.50;;;14.30;99.90;;;;;;5030209;28;20175;-68
2021/08/11 04:23:22;;;;;;;19.27;12.10;;;14.40;99.90;;;;;;5032282;28;20218;-68
2021/08/11 04:25:47;;;;;;;17.07;11.70;;;14.50;99.90;;;;;;5031784;28;20210;-68
2021/08/11 04:28:13;;;;;;;21.67;13.40;;;14.50;99.90;;;;;;5030952;28;20183;-67
2021/08/11 04:30:40;;;;;;;18.70;11.77;;;14.60;99.90;;;;;;5030664;28;20579;-68
2021/08/11 04:33:06;;;;;;;20.13;12.27;;;14.60;99.90;;;;;;5032181;28;20183;-67
2021/08/11 04:35:32;;;;;;;20.97;12.90;;;14.70;99.90;;;;;;5031727;28;20210;-67
2021/08/11 04:37:58;;;;;;;27.23;13.17;;;14.70;99.90;;;;;;5032012;28;20238;-68
2021/08/11 04:40:24;;;;;;;20.03;13.20;;;14.80;99.90;;;;;;5031466;28;20182;-68
2021/08/11 04:42:50;;;;;;;22.53;15.10;;;14.90;99.90;;;;;;5031918;28;20168;-68
2021/08/11 04:45:16;;;;;;;17.53;12.97;;;14.90;99.90;;;;;;5031511;28;20577;-68
2021/08/11 04:47:41;;;;;;;21.93;14.70;;;15.00;99.90;;;;;;5030464;28;20609;-68
2021/08/11 04:50:07;;;;;;;30.80;14.00;;;15.10;99.90;;;;;;5031452;28;20183;-68
2021/08/11 04:52:33;;;;;;;28.77;12.67;;;15.20;99.90;;;;;;5030394;28;20215;-68
2021/08/11 04:55:01;;;;;;;31.40;13.17;;;15.20;99.90;;;;;;5031395;28;20234;-67
2021/08/11 04:57:28;;;;;;;19.17;12.83;;;15.20;99.90;;;;;;5030549;28;20195;-68
2021/08/11 04:59:53;;;;;;;20.67;14.90;;;15.30;99.90;;;;;;5031212;28;20175;-68
2021/08/11 05:02:19;;;;;;;27.23;13.07;;;15.30;99.90;;;;;;5031321;28;20677;-68
2021/08/11 05:04:44;;;;;;;24.57;12.13;;;15.40;99.90;;;;;;5031165;28;20187;-67
2021/08/11 05:07:10;;;;;;;17.60;13.13;;;15.40;99.90;;;;;;5031584;28;20211;-68
2021/08/11 05:09:36;;;;;;;16.57;14.97;;;15.50;99.90;;;;;;5031105;28;20194;-67
2021/08/11 05:12:02;;;;;;;21.67;14.60;;;15.60;99.90;;;;;;5031516;28;20230;-68
2021/08/11 05:14:29;;;;;;;16.27;13.97;;;15.70;99.90;;;;;;5031185;28;20191;-67
2021/08/11 05:16:55;;;;;;;17.73;11.57;;;15.70;99.90;;;;;;5031472;28;20199;-68
2021/08/11 05:19:20;;;;;;;14.50;12.30;;;15.70;99.90;;;;;;5031478;28;20178;-67
2021/08/11 05:21:46;;;;;;;20.97;13.30;;;15.70;99.90;;;;;;5031054;28;20547;-68
2021/08/11 05:24:12;;;;;;;13.57;11.40;;;15.80;99.90;;;;;;5031244;28;20176;-68
2021/08/11 05:26:39;;;;;;;17.43;12.67;;;15.80;99.90;;;;;;5031235;28;20729;-67
2021/08/11 05:29:04;;;;;;;15.63;12.40;;;15.80;99.90;;;;;;5031536;28;20252;-68
2021/08/11 05:31:30;;;;;;;14.43;13.03;;;15.80;99.90;;;;;;5030862;28;20332;-67
2021/08/11 05:33:56;;;;;;;15.47;10.90;;;15.80;99.90;;;;;;5032999;28;20273;-68
2021/08/11 05:36:22;;;;;;;20.80;12.77;;;15.80;99.90;;;;;;5035206;28;20268;-68
2021/08/11 05:38:48;;;;;;;20.07;11.37;;;15.90;99.90;;;;;;5034186;28;20176;-68
2021/08/11 05:41:13;;;;;;;14.83;11.60;;;16.00;99.90;;;;;;5034541;28;20175;-68
2021/08/11 05:43:39;;;;;;;15.90;12.60;;;16.20;99.90;;;;;;5035060;28;20176;-67
2021/08/11 05:46:05;;;;;;;13.13;11.80;;;16.40;99.90;;;;;;5034971;28;20227;-67
2021/08/11 05:48:32;;;;;;;15.53;11.73;;;16.50;99.90;;;;;;5034990;28;20187;-67
2021/08/11 05:50:57;;;;;;;14.27;12.50;;;16.70;99.90;;;;;;5034965;28;20175;-68
2021/08/11 05:53:23;;;;;;;16.00;14.30;;;17.10;99.90;;;;;;5034859;28;20262;-67
2021/08/11 05:55:49;;;;;;;19.50;17.67;;;17.40;99.90;;;;;;5033394;28;20333;-68
2021/08/11 05:58:15;;;;;;;14.80;13.40;;;17.60;99.90;;;;;;5034669;28;20195;-67
2021/08/11 06:00:41;;;;;;;15.57;11.90;;;17.90;99.90;;;;;;5034686;28;20191;-68
2021/08/11 06:03:07;;;;;;;14.03;12.53;;;17.80;99.90;;;;;;5034633;28;20632;-67
2021/08/11 06:05:36;;;;;;;13.63;12.33;;;17.90;99.90;;;;;;5034833;28;20270;-68
2021/08/11 06:08:02;;;;;;;12.63;11.47;;;17.80;99.90;;;;;;5032198;28;20691;-68
2021/08/11 06:10:28;;;;;;;14.30;12.90;;;17.70;99.90;;;;;;5034153;28;20203;-67
2021/08/11 06:12:53;;;;;;;13.40;11.47;;;17.80;99.90;;;;;;5033408;28;20706;-68
2021/08/11 06:15:20;;;;;;;11.87;10.33;;;17.70;99.90;;;;;;5034175;28;20261;-67
2021/08/11 06:17:48;;;;;;;13.50;12.07;;;17.70;99.90;;;;;;5034232;28;20183;-68
2021/08/11 06:20:16;;;;;;;17.50;12.07;;;17.70;99.90;;;;;;5032804;28;20667;-67
2021/08/11 06:22:41;;;;;;;12.67;11.47;;;17.80;99.90;;;;;;5034517;28;20218;-68
2021/08/11 06:25:08;;;;;;;13.63;11.90;;;17.80;99.90;;;;;;5034161;28;20613;-68
2021/08/11 06:27:33;;;;;;;12.07;10.83;;;17.80;99.90;;;;;;5034581;28;20182;-67
2021/08/11 06:29:59;;;;;;;12.13;10.17;;;17.90;99.90;;;;;;5033712;28;20282;-67
2021/08/11 06:32:25;;;;;;;13.80;12.50;;;18.00;99.90;;;;;;5032534;28;20184;-67
2021/08/11 06:34:50;;;;;;;14.80;13.47;;;18.10;99.90;;;;;;5033954;28;20210;-67
2021/08/11 06:37:16;;;;;;;17.40;12.60;;;18.30;99.90;;;;;;5033885;28;20179;-67
2021/08/11 06:39:41;;;;;;;16.17;11.70;;;18.80;99.90;;;;;;5032596;28;20168;-67
2021/08/11 06:42:07;;;;;;;12.03;11.03;;;19.20;99.90;;;;;;5033100;28;20262;-68
2021/08/11 06:44:32;;;;;;;13.53;12.33;;;19.40;99.90;;;;;;5033506;28;20752;-67
2021/08/11 06:46:58;;;;;;;12.47;11.23;;;19.70;99.90;;;;;;5033763;28;20246;-66
2021/08/11 06:49:24;;;;;;;13.07;11.77;;;20.10;99.90;;;;;;5033608;28;20183;-67
2021/08/11 06:51:49;;;;;;;12.63;11.47;;;20.20;99.90;;;;;;5033470;28;20176;-68
2021/08/11 06:54:15;;;;;;;13.77;12.53;;;20.00;99.90;;;;;;5033786;28;20168;-67
2021/08/11 06:56:41;;;;;;;13.40;12.27;;;19.90;99.90;;;;;;5033375;28;20294;-68
2021/08/11 06:59:07;;;;;;;13.70;12.40;;;20.10;99.90;;;;;;5033900;28;20182;-67
2021/08/11 07:01:33;;;;;;;12.23;11.17;;;20.40;99.90;;;;;;5033403;28;20179;-66
2021/08/11 07:03:59;;;;;;;14.07;12.87;;;20.80;99.90;;;;;;5033674;28;20190;-68
2021/08/11 07:06:24;;;;;;;12.43;11.27;;;20.80;99.90;;;;;;5033215;28;20207;-68
2021/08/11 07:08:50;;;;;;;13.23;12.13;;;20.90;99.90;;;;;;5032597;28;20236;-66
2021/08/11 07:11:16;;;;;;;11.90;10.80;;;20.90;99.90;;;;;;5032887;28;20669;-67
2021/08/11 07:13:41;;;;;;;10.33;9.53;;;21.00;99.90;;;;;;5033672;28;20186;-66
2021/08/11 07:16:07;;;;;;;13.00;10.82;;;21.30;99.90;;;;;;5032908;28;20215;-66
2021/08/11 07:18:33;;;;;;;10.35;9.45;;;21.70;99.90;;;;;;5033548;28;20278;-66
2021/08/11 07:20:58;;;;;;;9.75;8.95;;;22.20;99.90;;;;;;5032976;28;20241;-66
2021/08/11 07:23:24;;;;;;;9.82;9.00;;;22.50;99.90;;;;;;5031241;28;20187;-66
2021/08/11 07:25:50;;;;;;;11.15;8.57;;;22.70;99.90;;;;;;5032990;28;20211;-66
2021/08/11 07:28:16;;;;;;;9.85;8.95;;;22.90;99.90;;;;;;5031865;28;20171;-66
2021/08/11 07:30:43;;;;;;;10.00;9.00;;;23.00;99.90;;;;;;5032657;28;20182;-65
2021/08/11 07:33:09;;;;;;;10.25;9.35;;;23.00;99.90;;;;;;5031818;28;20576;-66
2021/08/11 07:35:36;;;;;;;9.65;8.77;;;23.00;99.90;;;;;;5032174;28;20727;-65
2021/08/11 07:38:03;;;;;;;10.02;9.02;;;22.90;99.90;;;;;;5033039;28;20168;-66
2021/08/11 07:40:29;;;;;;;9.60;8.60;;;23.00;99.90;;;;;;5032357;28;20660;-66
2021/08/11 07:42:56;;;;;;;9.25;8.45;;;22.90;99.90;;;;;;5031409;28;20167;-66
2021/08/11 07:45:23;;;;;;;9.95;9.05;;;22.60;99.90;;;;;;5032576;28;20195;-66
2021/08/11 07:47:52;;;;;;;10.68;9.68;;;22.30;99.90;;;;;;5032473;28;20543;-66
2021/08/11 07:50:19;;;;;;;9.90;9.10;;;22.30;99.90;;;;;;5031113;28;20175;-66
2021/08/11 07:52:45;;;;;;;10.43;9.43;;;22.80;99.90;;;;;;5031283;28;20176;-66
2021/08/11 07:55:11;;;;;;;11.10;9.80;;;23.10;99.90;;;;;;5030515;28;20490;-66
2021/08/11 07:57:38;;;;;;;11.32;10.23;;;23.40;99.90;;;;;;5032929;28;20637;-65
2021/08/11 08:00:05;;;;;;;11.95;10.80;;;23.40;99.90;;;;;;5030836;28;20184;-66
2021/08/11 08:02:31;;;;;;;11.73;10.68;;;23.00;99.90;;;;;;5032592;28;20700;-68
2021/08/11 08:04:56;;;;;;;12.45;11.27;;;22.60;99.90;;;;;;5032125;28;20178;-65
2021/08/11 08:07:22;;;;;;;13.00;11.68;;;22.50;99.90;;;;;;5032367;28;20623;-66
2021/08/11 08:09:48;;;;;;;13.65;12.35;;;22.30;99.90;;;;;;5031820;28;20175;-67
2021/08/11 08:12:13;;;;;;;12.50;11.35;;;22.20;99.90;;;;;;5032241;28;20251;-67
2021/08/11 08:14:39;;;;;;;13.77;11.65;;;22.10;99.90;;;;;;5031976;28;20206;-68
2021/08/11 08:17:04;;;;;;;14.13;11.80;;;22.10;99.90;;;;;;5030948;28;20200;-67
2021/08/11 08:19:30;;;;;;;12.32;11.07;;;22.20;99.90;;;;;;5031818;28;20645;-68
2021/08/11 08:21:56;;;;;;;12.25;10.93;;;22.20;99.90;;;;;;5030129;28;20176;-65
2021/08/11 08:24:22;;;;;;;12.07;10.63;;;22.20;99.90;;;;;;5031995;28;20194;-65
2021/08/11 08:26:48;;;;;;;12.27;11.18;;;22.20;99.90;;;;;;5031985;28;20239;-67
2021/08/11 08:29:13;;;;;;;14.13;12.00;;;22.30;99.90;;;;;;5031950;28;20179;-67
2021/08/11 08:31:39;;;;;;;13.88;12.50;;;22.30;99.90;;;;;;5031715;28;20176;-67
2021/08/11 08:34:05;;;;;;;16.75;11.82;;;22.10;99.90;;;;;;5031919;28;20241;-68
2021/08/11 08:36:31;;;;;;;13.27;11.98;;;22.30;99.90;;;;;;5031609;28;20211;-68
2021/08/11 08:38:57;;;;;;;13.77;10.60;;;22.50;99.90;;;;;;5031595;28;20240;-67
2021/08/11 08:41:22;;;;;;;11.00;10.00;;;22.70;99.90;;;;;;5031604;28;20171;-67
2021/08/11 08:43:48;;;;;;;10.88;9.88;;;22.80;99.90;;;;;;5030469;28;20176;-67
2021/08/11 08:46:18;;;;;;;11.55;10.00;;;22.80;99.90;;;;;;5031633;28;20195;-66
2021/08/11 08:48:44;;;;;;;11.30;10.00;;;22.90;99.90;;;;;;5030720;28;20258;-67
2021/08/11 08:51:14;;;;;;;13.02;9.82;;;23.00;99.90;;;;;;5030262;28;20331;-67
2021/08/11 08:53:44;;;;;;;11.57;9.95;;;23.10;99.90;;;;;;5031805;28;20645;-67
2021/08/11 08:56:10;;;;;;;10.52;9.52;;;23.10;99.90;;;;;;5031312;28;20253;-67
2021/08/11 08:58:38;;;;;;;10.02;9.02;;;22.90;99.90;;;;;;5031613;28;20186;-66
2021/08/11 09:01:04;;;;;;;9.10;8.05;;;23.30;99.90;;;;;;5031604;28;20163;-66
2021/08/11 09:03:30;;;;;;;9.07;8.20;;;23.60;99.90;;;;;;5031579;28;20175;-66
2021/08/11 09:05:55;;;;;;;9.13;8.32;;;23.90;99.90;;;;;;5031415;28;20195;-67
2021/08/11 09:08:21;;;;;;;9.32;6.78;;;23.90;99.90;;;;;;5031372;28;20259;-66
2021/08/11 09:10:47;;;;;;;8.88;8.07;;;24.10;99.90;;;;;;5031268;28;20182;-66
2021/08/11 09:13:14;;;;;;;9.00;8.10;;;24.40;99.90;;;;;;5030863;28;20259;-68
2021/08/11 09:15:43;;;;;;;11.23;8.48;;;24.50;99.90;;;;;;5029582;28;20302;-67
2021/08/11 09:18:13;;;;;;;10.07;8.18;;;24.50;99.90;;;;;;5031068;28;20274;-66
2021/08/11 09:20:40;;;;;;;9.85;8.85;;;24.50;99.90;;;;;;5046008;28;20172;-66
2021/08/11 09:23:07;;;;;;;9.43;8.57;;;25.10;99.90;;;;;;5031157;28;20213;-66
2021/08/11 09:25:33;;;;;;;8.43;7.63;;;25.80;99.90;;;;;;5030151;28;20199;-68
2021/08/11 09:27:58;;;;;;;8.15;7.35;;;25.70;99.90;;;;;;5031187;28;20645;-68
2021/08/11 09:30:26;;;;;;;7.85;7.13;;;25.80;99.90;;;;;;5030199;28;20191;-68
2021/08/11 09:32:57;;;;;;;6.55;6.00;;;26.10;99.90;;;;;;5031397;28;20171;-67
2021/08/11 09:35:31;;;;;;;7.30;6.63;;;26.30;99.90;;;;;;5031061;28;20214;-67
2021/08/11 09:37:59;;;;;;;6.88;6.28;;;26.30;99.90;;;;;;5031258;28;20586;-67
2021/08/11 09:40:30;;;;;;;9.25;7.90;;;26.30;99.90;;;;;;5030834;28;20176;-66
2021/08/11 09:43:04;;;;;;;7.60;7.10;;;26.40;99.90;;;;;;5029975;28;20544;-67
2021/08/11 09:45:50;;;;;;;7.40;6.72;;;26.40;99.90;;;;;;5031234;28;20212;-67
2021/08/11 09:48:18;;;;;;;7.15;6.65;;;26.20;99.90;;;;;;5031019;28;20175;-67
2021/08/11 09:50:47;;;;;;;7.60;6.80;;;26.30;99.90;;;;;;5031026;28;20512;-67
2021/08/11 09:53:34;;;;;;;6.65;6.15;;;26.40;99.90;;;;;;5030917;28;20565;-67
2021/08/11 09:56:10;;;;;;;7.55;6.85;;;26.40;99.90;;;;;;5084236;22;20614;-66
2021/08/11 09:58:43;;;;;;;7.30;6.70;;;26.20;99.90;;;;;;5071338;28;20653;-66
2021/08/11 10:01:11;;;;;;;7.43;6.68;;;26.10;99.90;;;;;;5071015;28;20590;-66
2021/08/11 10:03:57;;;;;;;7.18;6.47;;;25.90;99.90;;;;;;5071114;28;20228;-66
2021/08/11 10:06:25;;;;;;;6.47;5.97;;;25.50;99.90;;;;;;5070971;28;20198;-66
2021/08/11 10:08:51;;;;;;;6.75;6.25;;;25.40;99.90;;;;;;5070864;28;20181;-66
2021/08/11 10:11:33;;;;;;;6.97;6.38;;;25.60;99.90;;;;;;5070574;28;20185;-66
2021/08/11 10:13:59;;;;;;;6.82;6.32;;;26.10;99.90;;;;;;5070986;28;20170;-66
2021/08/11 10:16:24;;;;;;;7.30;6.80;;;26.30;99.90;;;;;;5070666;28;20214;-66
2021/08/11 10:18:51;;;;;;;5.88;5.57;;;26.40;99.90;;;;;;5070649;28;20178;-65
2021/08/11 10:21:16;;;;;;;6.30;5.90;;;26.20;99.90;;;;;;5074263;28;20174;-66
2021/08/11 10:23:42;;;;;;;7.75;7.25;;;25.90;99.90;;;;;;5074253;28;20167;-66
2021/08/11 10:26:08;;;;;;;7.20;6.70;;;25.70;99.90;;;;;;5074244;28;20686;-65
2021/08/11 10:28:35;;;;;;;6.97;6.47;;;25.90;99.90;;;;;;5074437;28;20269;-66
2021/08/11 10:31:00;;;;;;;6.65;6.15;;;26.00;99.90;;;;;;5072474;28;20273;-65
2021/08/11 10:33:27;;;;;;;5.85;5.30;;;26.20;99.90;;;;;;5070581;28;20265;-65
2021/08/11 10:35:54;;;;;;;6.50;6.00;;;26.10;99.90;;;;;;5073215;28;20210;-66
2021/08/11 10:38:20;;;;;;;6.05;5.60;;;26.00;99.90;;;;;;5074257;28;20166;-66
2021/08/11 10:40:52;;;;;;;6.13;5.63;;;26.50;99.90;;;;;;5073846;28;20266;-65
2021/08/11 10:43:17;;;;;;;5.57;5.22;;;27.70;99.90;;;;;;5068796;28;20606;-66
2021/08/11 10:45:52;;;;;;;5.63;4.95;;;28.90;99.90;;;;;;5063685;28;20273;-66
2021/08/11 10:48:18;;;;;;;5.75;5.35;;;29.70;99.90;;;;;;5074018;28;20630;-65
2021/08/11 10:50:45;;;;;;;6.13;5.53;;;30.40;99.90;;;;;;5056275;28;20277;-66
2021/08/11 10:53:12;;;;;;;5.18;4.55;;;30.70;99.90;;;;;;5054043;28;20534;-66
2021/08/11 10:55:41;;;;;;;5.28;4.97;;;30.70;99.90;;;;;;5053607;28;20631;-65
2021/08/11 10:58:07;;;;;;;9.90;5.97;;;30.90;99.90;;;;;;5068308;28;20174;-66
2021/08/11 11:00:41;;;;;;;5.95;5.55;;;30.30;99.90;;;;;;5073703;28;20178;-66
2021/08/11 11:03:07;;;;;;;5.65;5.00;;;30.50;99.90;;;;;;5062216;28;20178;-66
2021/08/11 11:05:33;;;;;;;5.82;5.32;;;30.90;99.90;;;;;;5072632;28;20233;-66
2021/08/11 11:08:15;;;;;;;5.78;5.20;;;31.20;99.90;;;;;;5073810;28;20212;-66
2021/08/11 11:10:45;;;;;;;5.82;5.22;;;31.00;99.90;;;;;;5073570;28;20170;-65
2021/08/11 11:13:33;;;;;;;6.35;5.85;;;31.20;99.90;;;;;;5069080;28;20178;-66
2021/08/11 11:16:01;;;;;;;5.63;4.93;;;31.60;99.90;;;;;;5065190;28;20201;-65
2021/08/11 11:18:27;;;;;;;5.72;5.32;;;31.60;99.90;;;;;;5073622;28;20178;-66
2021/08/11 11:20:56;;;;;;;5.80;5.40;;;31.50;99.90;;;;;;5054473;28;20181;-65
2021/08/11 11:23:47;;;;;;;5.93;5.45;;;31.40;99.90;;;;;;5053463;28;20169;-66
2021/08/11 11:26:15;;;;;;;7.75;7.15;;;31.30;99.90;;;;;;5066030;28;20213;-66
2021/08/11 11:29:00;;;;;;;6.55;6.10;;;30.70;99.90;;;;;;5073583;28;20177;-66
2021/08/11 11:31:47;;;;;;;5.68;5.28;;;29.90;99.90;;;;;;5055061;28;20186;-66
2021/08/11 11:34:18;;;;;;;5.63;5.22;;;29.30;99.90;;;;;;5053068;28;21100;-65
2021/08/11 11:36:45;;;;;;;6.22;5.72;;;29.10;99.90;;;;;;5070145;28;20287;-65
2021/08/11 11:39:13;;;;;;;5.60;5.15;;;28.60;99.90;;;;;;5073071;28;20174;-66
2021/08/11 11:45:00;;;;;;;5.63;5.22;;;28.20;99.90;;;;;;5052999;28;20186;-65
2021/08/11 11:47:38;;;;;;;5.43;5.03;;;28.80;99.90;;;;;;5053295;28;20747;-65
2021/08/11 11:50:21;;;;;;;5.32;4.85;;;28.50;99.90;;;;;;5053580;28;20174;-66
2021/08/11 11:53:02;;;;;;;5.50;5.00;;;29.10;99.90;;;;;;5072926;28;20541;-65
2021/08/11 11:55:36;;;;;;;6.22;5.47;;;29.80;99.90;;;;;;5068550;28;20273;-66
2021/08/11 11:58:06;;;;;;;6.25;5.85;;;29.80;99.90;;;;;;5052872;28;20198;-66
2021/08/11 12:00:32;;;;;;;5.63;5.22;;;28.80;99.90;;;;;;5056097;28;20178;-66
2021/08/11 12:02:58;;;;;;;6.30;5.82;;;28.70;99.90;;;;;;5072785;28;20254;-66
2021/08/11 12:05:25;;;;;;;5.22;4.85;;;29.00;99.90;;;;;;5070848;28;20170;-66
2021/08/11 12:07:51;;;;;;;6.35;5.85;;;29.40;99.90;;;;;;5072694;28;20170;-66
2021/08/11 12:10:25;;;;;;;5.10;4.80;;;29.30;99.90;;;;;;5068022;28;20178;-65
2021/08/11 12:13:02;;;;;;;5.38;4.97;;;29.90;99.90;;;;;;5072631;28;20277;-66
2021/08/11 12:15:34;;;;;;;6.43;5.68;;;30.20;99.90;;;;;;5066819;28;20655;-65
2021/08/11 12:18:16;;;;;;;5.70;5.30;;;30.10;99.90;;;;;;5052637;28;20171;-65
2021/08/11 12:20:42;;;;;;;5.55;5.15;;;30.20;99.90;;;;;;5057066;28;20269;-65
2021/08/11 12:23:29;;;;;;;6.10;5.63;;;30.00;99.90;;;;;;5072316;28;20166;-66
2021/08/11 12:26:07;;;;;;;5.35;4.95;;;29.80;99.90;;;;;;5064493;28;20198;-65
2021/08/11 12:28:40;;;;;;;6.57;6.18;;;29.50;99.90;;;;;;5059284;28;20311;-65
2021/08/11 12:31:09;;;;;;;6.07;5.60;;;29.30;99.90;;;;;;5071912;28;20679;-66
2021/08/11 12:33:37;;;;;;;5.55;5.15;;;29.70;99.90;;;;;;5065053;28;20182;-66
2021/08/11 12:36:12;;;;;;;5.40;4.95;;;29.60;99.90;;;;;;5051507;28;20207;-66
2021/08/11 12:38:40;;;;;;;5.97;5.47;;;29.50;99.90;;;;;;5058416;28;20257;-65
2021/08/11 12:41:20;;;;;;;5.53;5.13;;;28.70;99.90;;;;;;5071548;28;20170;-65